sensor_id;sensor_type;location;lat;lon;timestamp;P1;durP1;ratioP1;P2;durP2;ratioP2
3769;SDS011;1900;48.890;9.190;2022-10-14T00:02:04;12.90;;;8.03;;
3769;SDS011;1900;48.890;9.190;2022-10-14T00:04:30;15.30;;;8.30;;
3769;SDS011;1900;48.890;9.190;2022-10-14T00:06:56;26.43;;;8.60;;
3769;SDS011;1900;48.890;9.190;2022-10-14T00:09:22;17.03;;;7.77;;
3769;SDS011;1900;48.890;9.190;2022-10-14T00:11:47;17.67;;;8.47;;
3769;SDS011;1900;48.890;9.190;2022-10-14T00:14:14;11.23;;;7.43;;
3769;SDS011;1900;48.890;9.190;2022-10-14T00:16:43;16.90;;;8.23;;
3769;SDS011;1900;48.890;9.190;2022-10-14T00:19:11;17.40;;;7.30;;
3769;SDS011;1900;48.890;9.190;2022-10-14T00:21:38;18.90;;;7.57;;
3769;SDS011;1900;48.890;9.190;2022-10-14T00:24:06;17.77;;;9.27;;
3769;SDS011;1900;48.890;9.190;2022-10-14T00:26:34;16.17;;;8.80;;
3769;SDS011;1900;48.890;9.190;2022-10-14T00:29:01;12.87;;;7.40;;
3769;SDS011;1900;48.890;9.190;2022-10-14T00:31:29;14.07;;;8.60;;
3769;SDS011;1900;48.890;9.190;2022-10-14T00:33:56;13.03;;;9.20;;
3769;SDS011;1900;48.890;9.190;2022-10-14T00:36:22;15.33;;;9.27;;
3769;SDS011;1900;48.890;9.190;2022-10-14T00:38:49;14.00;;;8.53;;
3769;SDS011;1900;48.890;9.190;2022-10-14T00:41:17;19.10;;;9.57;;
3769;SDS011;1900;48.890;9.190;2022-10-14T00:43:55;19.60;;;8.60;;
3769;SDS011;1900;48.890;9.190;2022-10-14T00:46:22;17.50;;;11.07;;
3769;SDS011;1900;48.890;9.190;2022-10-14T00:48:54;12.47;;;9.60;;
3769;SDS011;1900;48.890;9.190;2022-10-14T00:51:22;14.17;;;10.07;;
3769;SDS011;1900;48.890;9.190;2022-10-14T00:53:49;23.23;;;10.23;;
3769;SDS011;1900;48.890;9.190;2022-10-14T00:56:16;16.00;;;9.60;;
3769;SDS011;1900;48.890;9.190;2022-10-14T00:58:46;18.70;;;9.80;;
3769;SDS011;1900;48.890;9.190;2022-10-14T01:01:11;17.47;;;10.50;;
3769;SDS011;1900;48.890;9.190;2022-10-14T01:03:38;12.60;;;9.40;;
3769;SDS011;1900;48.890;9.190;2022-10-14T01:15:00;17.20;;;9.00;;
3769;SDS011;1900;48.890;9.190;2022-10-14T01:32:02;14.10;;;9.10;;
3769;SDS011;1900;48.890;9.190;2022-10-14T01:34:40;11.63;;;7.73;;
3769;SDS011;1900;48.890;9.190;2022-10-14T01:37:12;12.93;;;8.37;;
3769;SDS011;1900;48.890;9.190;2022-10-14T01:39:46;10.70;;;8.00;;
3769;SDS011;1900;48.890;9.190;2022-10-14T01:42:22;10.70;;;7.27;;
3769;SDS011;1900;48.890;9.190;2022-10-14T01:45:00;8.90;;;7.33;;
3769;SDS011;1900;48.890;9.190;2022-10-14T01:47:30;13.30;;;6.90;;
3769;SDS011;1900;48.890;9.190;2022-10-14T01:50:03;10.10;;;6.73;;
3769;SDS011;1900;48.890;9.190;2022-10-14T01:52:39;14.47;;;7.90;;
3769;SDS011;1900;48.890;9.190;2022-10-14T01:55:10;9.17;;;7.10;;
3769;SDS011;1900;48.890;9.190;2022-10-14T01:57:40;9.57;;;6.63;;
3769;SDS011;1900;48.890;9.190;2022-10-14T02:00:08;11.00;;;7.40;;
3769;SDS011;1900;48.890;9.190;2022-10-14T02:02:41;15.30;;;7.40;;
3769;SDS011;1900;48.890;9.190;2022-10-14T02:05:16;10.33;;;7.60;;
3769;SDS011;1900;48.890;9.190;2022-10-14T02:08:03;9.03;;;6.87;;
3769;SDS011;1900;48.890;9.190;2022-10-14T02:10:38;9.13;;;6.20;;
3769;SDS011;1900;48.890;9.190;2022-10-14T02:13:17;13.83;;;7.17;;
3769;SDS011;1900;48.890;9.190;2022-10-14T02:18:23;9.00;;;6.63;;
3769;SDS011;1900;48.890;9.190;2022-10-14T02:23:45;17.20;;;6.97;;
3769;SDS011;1900;48.890;9.190;2022-10-14T02:26:16;10.30;;;6.60;;
3769;SDS011;1900;48.890;9.190;2022-10-14T02:28:42;11.17;;;6.37;;
3769;SDS011;1900;48.890;9.190;2022-10-14T02:31:11;8.70;;;5.83;;
3769;SDS011;1900;48.890;9.190;2022-10-14T02:33:41;8.80;;;5.30;;
3769;SDS011;1900;48.890;9.190;2022-10-14T02:36:11;10.17;;;6.07;;
3769;SDS011;1900;48.890;9.190;2022-10-14T02:38:42;10.43;;;4.97;;
3769;SDS011;1900;48.890;9.190;2022-10-14T02:41:11;7.30;;;4.83;;
3769;SDS011;1900;48.890;9.190;2022-10-14T02:43:40;8.27;;;5.87;;
3769;SDS011;1900;48.890;9.190;2022-10-14T02:46:07;6.60;;;4.60;;
3769;SDS011;1900;48.890;9.190;2022-10-14T02:48:33;9.63;;;4.37;;
3769;SDS011;1900;48.890;9.190;2022-10-14T02:50:59;8.40;;;5.23;;
3769;SDS011;1900;48.890;9.190;2022-10-14T02:53:25;7.50;;;4.67;;
3769;SDS011;1900;48.890;9.190;2022-10-14T02:55:50;8.60;;;5.20;;
3769;SDS011;1900;48.890;9.190;2022-10-14T02:58:16;8.03;;;4.80;;
3769;SDS011;1900;48.890;9.190;2022-10-14T03:00:42;7.30;;;4.63;;
3769;SDS011;1900;48.890;9.190;2022-10-14T03:03:09;13.03;;;5.00;;
3769;SDS011;1900;48.890;9.190;2022-10-14T03:05:37;11.60;;;5.90;;
3769;SDS011;1900;48.890;9.190;2022-10-14T03:08:08;10.40;;;5.00;;
3769;SDS011;1900;48.890;9.190;2022-10-14T03:10:36;10.67;;;5.40;;
3769;SDS011;1900;48.890;9.190;2022-10-14T03:13:02;8.20;;;5.10;;
3769;SDS011;1900;48.890;9.190;2022-10-14T03:15:34;7.40;;;5.20;;
3769;SDS011;1900;48.890;9.190;2022-10-14T03:18:02;7.40;;;5.43;;
3769;SDS011;1900;48.890;9.190;2022-10-14T03:20:37;20.20;;;5.70;;
3769;SDS011;1900;48.890;9.190;2022-10-14T03:23:06;4.87;;;4.37;;
3769;SDS011;1900;48.890;9.190;2022-10-14T03:25:34;7.33;;;4.20;;
3769;SDS011;1900;48.890;9.190;2022-10-14T03:28:05;8.83;;;4.60;;
3769;SDS011;1900;48.890;9.190;2022-10-14T03:30:39;6.60;;;4.67;;
3769;SDS011;1900;48.890;9.190;2022-10-14T03:33:11;7.60;;;4.90;;
3769;SDS011;1900;48.890;9.190;2022-10-14T03:35:50;6.63;;;4.53;;
3769;SDS011;1900;48.890;9.190;2022-10-14T03:38:21;10.20;;;5.03;;
3769;SDS011;1900;48.890;9.190;2022-10-14T03:40:47;12.13;;;4.80;;
3769;SDS011;1900;48.890;9.190;2022-10-14T03:43:14;8.00;;;4.50;;
3769;SDS011;1900;48.890;9.190;2022-10-14T03:45:48;8.13;;;4.23;;
3769;SDS011;1900;48.890;9.190;2022-10-14T03:48:17;9.07;;;4.40;;
3769;SDS011;1900;48.890;9.190;2022-10-14T03:50:42;9.13;;;5.30;;
3769;SDS011;1900;48.890;9.190;2022-10-14T03:53:09;13.40;;;5.00;;
3769;SDS011;1900;48.890;9.190;2022-10-14T03:55:35;8.30;;;4.80;;
3769;SDS011;1900;48.890;9.190;2022-10-14T03:58:03;6.33;;;4.90;;
3769;SDS011;1900;48.890;9.190;2022-10-14T04:00:29;7.67;;;4.80;;
3769;SDS011;1900;48.890;9.190;2022-10-14T04:03:12;7.60;;;5.00;;
3769;SDS011;1900;48.890;9.190;2022-10-14T04:05:40;7.47;;;5.03;;
3769;SDS011;1900;48.890;9.190;2022-10-14T04:08:11;9.80;;;5.37;;
3769;SDS011;1900;48.890;9.190;2022-10-14T04:10:40;9.53;;;5.17;;
3769;SDS011;1900;48.890;9.190;2022-10-14T04:13:08;7.60;;;5.73;;
3769;SDS011;1900;48.890;9.190;2022-10-14T04:15:36;6.17;;;5.50;;
3769;SDS011;1900;48.890;9.190;2022-10-14T04:18:13;13.30;;;5.60;;
3769;SDS011;1900;48.890;9.190;2022-10-14T04:20:41;15.50;;;5.93;;
3769;SDS011;1900;48.890;9.190;2022-10-14T04:23:07;11.47;;;6.27;;
3769;SDS011;1900;48.890;9.190;2022-10-14T04:25:36;5.80;;;4.80;;
3769;SDS011;1900;48.890;9.190;2022-10-14T04:28:04;7.20;;;5.30;;
3769;SDS011;1900;48.890;9.190;2022-10-14T04:30:51;10.70;;;5.83;;
3769;SDS011;1900;48.890;9.190;2022-10-14T04:33:23;10.00;;;5.47;;
3769;SDS011;1900;48.890;9.190;2022-10-14T04:35:49;10.03;;;5.20;;
3769;SDS011;1900;48.890;9.190;2022-10-14T04:38:23;9.43;;;5.37;;
3769;SDS011;1900;48.890;9.190;2022-10-14T04:40:55;11.10;;;6.00;;
3769;SDS011;1900;48.890;9.190;2022-10-14T04:43:21;9.33;;;5.53;;
3769;SDS011;1900;48.890;9.190;2022-10-14T04:45:47;10.00;;;5.90;;
3769;SDS011;1900;48.890;9.190;2022-10-14T04:48:20;8.60;;;5.10;;
3769;SDS011;1900;48.890;9.190;2022-10-14T04:50:48;10.23;;;6.17;;
3769;SDS011;1900;48.890;9.190;2022-10-14T04:53:38;11.30;;;6.00;;
3769;SDS011;1900;48.890;9.190;2022-10-14T04:56:39;12.93;;;6.70;;
3769;SDS011;1900;48.890;9.190;2022-10-14T04:59:05;8.73;;;6.83;;
3769;SDS011;1900;48.890;9.190;2022-10-14T05:01:51;14.77;;;7.73;;
3769;SDS011;1900;48.890;9.190;2022-10-14T05:04:17;13.33;;;6.80;;
3769;SDS011;1900;48.890;9.190;2022-10-14T05:06:45;8.17;;;6.63;;
3769;SDS011;1900;48.890;9.190;2022-10-14T05:09:13;11.90;;;7.73;;
3769;SDS011;1900;48.890;9.190;2022-10-14T05:11:39;13.13;;;7.90;;
3769;SDS011;1900;48.890;9.190;2022-10-14T05:14:05;11.43;;;6.80;;
3769;SDS011;1900;48.890;9.190;2022-10-14T05:16:32;13.50;;;6.93;;
3769;SDS011;1900;48.890;9.190;2022-10-14T05:18:59;12.97;;;8.07;;
3769;SDS011;1900;48.890;9.190;2022-10-14T05:21:26;11.00;;;6.67;;
3769;SDS011;1900;48.890;9.190;2022-10-14T05:24:20;13.67;;;7.47;;
3769;SDS011;1900;48.890;9.190;2022-10-14T05:26:46;10.50;;;7.57;;
3769;SDS011;1900;48.890;9.190;2022-10-14T05:29:14;13.33;;;7.77;;
3769;SDS011;1900;48.890;9.190;2022-10-14T05:31:40;9.40;;;7.23;;
3769;SDS011;1900;48.890;9.190;2022-10-14T05:34:18;12.93;;;7.73;;
3769;SDS011;1900;48.890;9.190;2022-10-14T05:36:44;17.43;;;7.90;;
3769;SDS011;1900;48.890;9.190;2022-10-14T05:39:10;16.00;;;9.03;;
3769;SDS011;1900;48.890;9.190;2022-10-14T05:41:40;15.57;;;9.37;;
3769;SDS011;1900;48.890;9.190;2022-10-14T05:44:06;11.73;;;8.57;;
3769;SDS011;1900;48.890;9.190;2022-10-14T05:46:32;46.70;;;30.90;;
3769;SDS011;1900;48.890;9.190;2022-10-14T05:48:58;14.37;;;9.00;;
3769;SDS011;1900;48.890;9.190;2022-10-14T05:51:26;20.67;;;9.60;;
3769;SDS011;1900;48.890;9.190;2022-10-14T05:53:59;13.50;;;9.27;;
3769;SDS011;1900;48.890;9.190;2022-10-14T05:56:25;13.77;;;8.60;;
3769;SDS011;1900;48.890;9.190;2022-10-14T05:58:52;16.37;;;8.93;;
3769;SDS011;1900;48.890;9.190;2022-10-14T06:01:18;18.77;;;10.40;;
3769;SDS011;1900;48.890;9.190;2022-10-14T06:03:44;15.73;;;8.57;;
3769;SDS011;1900;48.890;9.190;2022-10-14T06:06:13;16.27;;;8.97;;
3769;SDS011;1900;48.890;9.190;2022-10-14T06:08:40;15.93;;;10.20;;
3769;SDS011;1900;48.890;9.190;2022-10-14T06:11:06;22.30;;;10.60;;
3769;SDS011;1900;48.890;9.190;2022-10-14T06:13:33;14.60;;;10.20;;
3769;SDS011;1900;48.890;9.190;2022-10-14T06:16:06;14.10;;;9.00;;
3769;SDS011;1900;48.890;9.190;2022-10-14T06:18:33;12.90;;;9.47;;
3769;SDS011;1900;48.890;9.190;2022-10-14T06:21:00;17.70;;;10.63;;
3769;SDS011;1900;48.890;9.190;2022-10-14T06:23:26;14.43;;;10.07;;
3769;SDS011;1900;48.890;9.190;2022-10-14T06:25:52;15.43;;;10.40;;
3769;SDS011;1900;48.890;9.190;2022-10-14T06:28:18;22.83;;;10.33;;
3769;SDS011;1900;48.890;9.190;2022-10-14T06:30:53;23.07;;;9.80;;
3769;SDS011;1900;48.890;9.190;2022-10-14T06:33:19;17.70;;;9.73;;
3769;SDS011;1900;48.890;9.190;2022-10-14T06:35:45;18.67;;;11.00;;
3769;SDS011;1900;48.890;9.190;2022-10-14T06:38:11;20.33;;;11.00;;
3769;SDS011;1900;48.890;9.190;2022-10-14T06:40:38;20.50;;;11.03;;
3769;SDS011;1900;48.890;9.190;2022-10-14T06:43:04;16.40;;;10.30;;
3769;SDS011;1900;48.890;9.190;2022-10-14T06:45:30;18.90;;;9.90;;
3769;SDS011;1900;48.890;9.190;2022-10-14T06:47:56;16.00;;;9.57;;
3769;SDS011;1900;48.890;9.190;2022-10-14T06:50:21;30.43;;;19.37;;
3769;SDS011;1900;48.890;9.190;2022-10-14T06:52:47;14.33;;;10.30;;
3769;SDS011;1900;48.890;9.190;2022-10-14T06:55:13;19.83;;;10.20;;
3769;SDS011;1900;48.890;9.190;2022-10-14T06:57:39;17.27;;;12.00;;
3769;SDS011;1900;48.890;9.190;2022-10-14T07:00:05;20.20;;;8.80;;
3769;SDS011;1900;48.890;9.190;2022-10-14T07:02:33;19.20;;;10.70;;
3769;SDS011;1900;48.890;9.190;2022-10-14T07:04:59;14.20;;;10.70;;
3769;SDS011;1900;48.890;9.190;2022-10-14T07:07:24;18.27;;;11.40;;
3769;SDS011;1900;48.890;9.190;2022-10-14T07:09:50;19.17;;;10.53;;
3769;SDS011;1900;48.890;9.190;2022-10-14T07:12:16;19.50;;;10.00;;
3769;SDS011;1900;48.890;9.190;2022-10-14T07:14:42;19.00;;;11.83;;
3769;SDS011;1900;48.890;9.190;2022-10-14T07:17:07;14.90;;;10.77;;
3769;SDS011;1900;48.890;9.190;2022-10-14T07:19:33;15.67;;;11.57;;
3769;SDS011;1900;48.890;9.190;2022-10-14T07:21:59;15.77;;;10.47;;
3769;SDS011;1900;48.890;9.190;2022-10-14T07:24:25;19.47;;;10.30;;
3769;SDS011;1900;48.890;9.190;2022-10-14T07:26:51;21.77;;;11.33;;
3769;SDS011;1900;48.890;9.190;2022-10-14T07:29:17;16.63;;;8.67;;
3769;SDS011;1900;48.890;9.190;2022-10-14T07:31:42;19.50;;;10.90;;
3769;SDS011;1900;48.890;9.190;2022-10-14T07:34:08;13.83;;;9.97;;
3769;SDS011;1900;48.890;9.190;2022-10-14T07:36:34;18.57;;;10.70;;
3769;SDS011;1900;48.890;9.190;2022-10-14T07:39:00;15.70;;;9.47;;
3769;SDS011;1900;48.890;9.190;2022-10-14T07:41:26;15.20;;;9.47;;
3769;SDS011;1900;48.890;9.190;2022-10-14T07:43:53;14.60;;;9.00;;
3769;SDS011;1900;48.890;9.190;2022-10-14T07:46:26;29.47;;;10.27;;
3769;SDS011;1900;48.890;9.190;2022-10-14T07:49:04;17.70;;;9.00;;
3769;SDS011;1900;48.890;9.190;2022-10-14T07:51:32;23.73;;;9.40;;
3769;SDS011;1900;48.890;9.190;2022-10-14T07:53:59;14.90;;;9.97;;
3769;SDS011;1900;48.890;9.190;2022-10-14T07:56:26;13.10;;;9.40;;
3769;SDS011;1900;48.890;9.190;2022-10-14T07:58:52;14.17;;;9.73;;
3769;SDS011;1900;48.890;9.190;2022-10-14T08:01:19;13.83;;;9.33;;
3769;SDS011;1900;48.890;9.190;2022-10-14T08:03:45;12.00;;;9.97;;
3769;SDS011;1900;48.890;9.190;2022-10-14T08:06:12;14.83;;;9.47;;
3769;SDS011;1900;48.890;9.190;2022-10-14T08:08:38;13.13;;;8.83;;
3769;SDS011;1900;48.890;9.190;2022-10-14T08:11:06;14.70;;;7.90;;
3769;SDS011;1900;48.890;9.190;2022-10-14T08:13:51;12.33;;;8.10;;
3769;SDS011;1900;48.890;9.190;2022-10-14T08:18:45;12.40;;;8.30;;
3769;SDS011;1900;48.890;9.190;2022-10-14T08:21:12;13.50;;;7.33;;
3769;SDS011;1900;48.890;9.190;2022-10-14T08:23:38;13.00;;;7.63;;
3769;SDS011;1900;48.890;9.190;2022-10-14T08:26:10;15.43;;;7.90;;
3769;SDS011;1900;48.890;9.190;2022-10-14T08:29:08;17.53;;;7.77;;
3769;SDS011;1900;48.890;9.190;2022-10-14T08:31:35;12.77;;;8.07;;
3769;SDS011;1900;48.890;9.190;2022-10-14T08:34:01;9.70;;;6.97;;
3769;SDS011;1900;48.890;9.190;2022-10-14T08:36:26;15.50;;;8.53;;
3769;SDS011;1900;48.890;9.190;2022-10-14T08:38:53;11.53;;;7.07;;
3769;SDS011;1900;48.890;9.190;2022-10-14T08:47:03;17.40;;;8.10;;
3769;SDS011;1900;48.890;9.190;2022-10-14T08:57:58;9.00;;;6.73;;
3769;SDS011;1900;48.890;9.190;2022-10-14T09:00:27;11.90;;;7.07;;
3769;SDS011;1900;48.890;9.190;2022-10-14T09:02:54;14.03;;;6.80;;
3769;SDS011;1900;48.890;9.190;2022-10-14T09:05:24;10.40;;;6.23;;
3769;SDS011;1900;48.890;9.190;2022-10-14T09:07:51;9.63;;;6.63;;
3769;SDS011;1900;48.890;9.190;2022-10-14T09:10:35;11.10;;;7.10;;
3769;SDS011;1900;48.890;9.190;2022-10-14T09:15:44;15.07;;;7.37;;
3769;SDS011;1900;48.890;9.190;2022-10-14T09:23:52;9.70;;;7.27;;
3769;SDS011;1900;48.890;9.190;2022-10-14T09:26:25;16.53;;;8.63;;
3769;SDS011;1900;48.890;9.190;2022-10-14T09:29:01;7.40;;;6.53;;
3769;SDS011;1900;48.890;9.190;2022-10-14T09:31:27;10.50;;;7.23;;
3769;SDS011;1900;48.890;9.190;2022-10-14T09:33:53;10.63;;;7.30;;
3769;SDS011;1900;48.890;9.190;2022-10-14T09:36:19;18.10;;;7.30;;
3769;SDS011;1900;48.890;9.190;2022-10-14T09:38:49;11.33;;;6.77;;
3769;SDS011;1900;48.890;9.190;2022-10-14T09:41:17;9.47;;;6.90;;
3769;SDS011;1900;48.890;9.190;2022-10-14T09:44:11;11.03;;;6.63;;
3769;SDS011;1900;48.890;9.190;2022-10-14T09:46:38;21.63;;;7.20;;
3769;SDS011;1900;48.890;9.190;2022-10-14T09:49:04;14.07;;;6.40;;
3769;SDS011;1900;48.890;9.190;2022-10-14T09:51:42;11.73;;;7.80;;
3769;SDS011;1900;48.890;9.190;2022-10-14T09:54:14;11.50;;;6.97;;
3769;SDS011;1900;48.890;9.190;2022-10-14T09:56:48;10.50;;;7.40;;
3769;SDS011;1900;48.890;9.190;2022-10-14T09:59:18;11.63;;;7.07;;
3769;SDS011;1900;48.890;9.190;2022-10-14T10:01:48;13.57;;;8.10;;
3769;SDS011;1900;48.890;9.190;2022-10-14T10:04:33;12.83;;;7.27;;
3769;SDS011;1900;48.890;9.190;2022-10-14T10:09:58;11.63;;;7.47;;
3769;SDS011;1900;48.890;9.190;2022-10-14T10:12:29;10.13;;;6.80;;
3769;SDS011;1900;48.890;9.190;2022-10-14T10:14:56;10.30;;;6.77;;
3769;SDS011;1900;48.890;9.190;2022-10-14T10:17:33;15.63;;;7.10;;
3769;SDS011;1900;48.890;9.190;2022-10-14T10:20:05;9.10;;;6.53;;
3769;SDS011;1900;48.890;9.190;2022-10-14T10:22:32;9.63;;;6.63;;
3769;SDS011;1900;48.890;9.190;2022-10-14T10:30:25;10.30;;;6.67;;
3769;SDS011;1900;48.890;9.190;2022-10-14T10:35:48;9.20;;;6.10;;
3769;SDS011;1900;48.890;9.190;2022-10-14T10:52:10;8.70;;;6.60;;
3769;SDS011;1900;48.890;9.190;2022-10-14T10:54:49;9.57;;;6.63;;
3769;SDS011;1900;48.890;9.190;2022-10-14T11:00:31;13.00;;;5.17;;
3769;SDS011;1900;48.890;9.190;2022-10-14T11:03:31;11.33;;;6.43;;
3769;SDS011;1900;48.890;9.190;2022-10-14T11:09:46;6.90;;;5.23;;
3769;SDS011;1900;48.890;9.190;2022-10-14T11:13:02;9.03;;;6.37;;
3769;SDS011;1900;48.890;9.190;2022-10-14T11:18:03;10.23;;;6.67;;
3769;SDS011;1900;48.890;9.190;2022-10-14T11:20:45;8.13;;;5.97;;
3769;SDS011;1900;48.890;9.190;2022-10-14T11:25:57;13.07;;;5.63;;
3769;SDS011;1900;48.890;9.190;2022-10-14T11:28:40;11.00;;;6.40;;
3769;SDS011;1900;48.890;9.190;2022-10-14T11:39:21;14.13;;;4.17;;
3769;SDS011;1900;48.890;9.190;2022-10-14T11:44:57;10.43;;;3.60;;
3769;SDS011;1900;48.890;9.190;2022-10-14T11:47:42;5.60;;;3.20;;
3769;SDS011;1900;48.890;9.190;2022-10-14T11:50:21;5.63;;;3.47;;
3769;SDS011;1900;48.890;9.190;2022-10-14T11:53:01;10.10;;;4.13;;
3769;SDS011;1900;48.890;9.190;2022-10-14T11:55:41;12.13;;;4.10;;
3769;SDS011;1900;48.890;9.190;2022-10-14T11:58:21;5.00;;;4.00;;
3769;SDS011;1900;48.890;9.190;2022-10-14T12:00:51;6.03;;;3.63;;
3769;SDS011;1900;48.890;9.190;2022-10-14T12:09:47;8.23;;;3.80;;
3769;SDS011;1900;48.890;9.190;2022-10-14T12:12:14;4.57;;;3.90;;
3769;SDS011;1900;48.890;9.190;2022-10-14T12:14:43;10.00;;;5.30;;
3769;SDS011;1900;48.890;9.190;2022-10-14T12:17:23;8.43;;;4.00;;
3769;SDS011;1900;48.890;9.190;2022-10-14T12:19:54;6.40;;;4.10;;
3769;SDS011;1900;48.890;9.190;2022-10-14T12:22:23;6.53;;;4.10;;
3769;SDS011;1900;48.890;9.190;2022-10-14T12:24:53;7.57;;;4.40;;
3769;SDS011;1900;48.890;9.190;2022-10-14T12:27:20;4.43;;;3.70;;
3769;SDS011;1900;48.890;9.190;2022-10-14T12:29:49;5.63;;;3.80;;
3769;SDS011;1900;48.890;9.190;2022-10-14T12:35:43;6.27;;;3.80;;
3769;SDS011;1900;48.890;9.190;2022-10-14T12:38:09;8.13;;;3.97;;
3769;SDS011;1900;48.890;9.190;2022-10-14T12:40:36;6.60;;;4.13;;
3769;SDS011;1900;48.890;9.190;2022-10-14T12:43:03;8.63;;;4.90;;
3769;SDS011;1900;48.890;9.190;2022-10-14T12:45:39;8.27;;;4.13;;
3769;SDS011;1900;48.890;9.190;2022-10-14T12:48:34;11.97;;;4.10;;
3769;SDS011;1900;48.890;9.190;2022-10-14T12:51:07;8.80;;;3.80;;
3769;SDS011;1900;48.890;9.190;2022-10-14T12:53:35;6.47;;;4.10;;
3769;SDS011;1900;48.890;9.190;2022-10-14T12:56:03;13.93;;;10.70;;
3769;SDS011;1900;48.890;9.190;2022-10-14T12:58:34;7.67;;;4.80;;
3769;SDS011;1900;48.890;9.190;2022-10-14T13:01:04;7.57;;;4.03;;
3769;SDS011;1900;48.890;9.190;2022-10-14T13:03:44;13.53;;;4.20;;
3769;SDS011;1900;48.890;9.190;2022-10-14T13:06:32;6.43;;;2.90;;
3769;SDS011;1900;48.890;9.190;2022-10-14T13:19:37;5.50;;;3.60;;
3769;SDS011;1900;48.890;9.190;2022-10-14T13:22:03;5.83;;;3.47;;
3769;SDS011;1900;48.890;9.190;2022-10-14T13:24:49;5.03;;;3.00;;
3769;SDS011;1900;48.890;9.190;2022-10-14T13:27:32;4.93;;;3.73;;
3769;SDS011;1900;48.890;9.190;2022-10-14T13:30:19;6.50;;;2.70;;
3769;SDS011;1900;48.890;9.190;2022-10-14T13:32:57;5.40;;;2.60;;
3769;SDS011;1900;48.890;9.190;2022-10-14T13:40:25;5.53;;;2.57;;
3769;SDS011;1900;48.890;9.190;2022-10-14T13:42:55;8.43;;;2.40;;
3769;SDS011;1900;48.890;9.190;2022-10-14T13:45:27;7.40;;;3.53;;
3769;SDS011;1900;48.890;9.190;2022-10-14T13:48:13;6.00;;;2.67;;
3769;SDS011;1900;48.890;9.190;2022-10-14T13:50:42;2.93;;;2.40;;
3769;SDS011;1900;48.890;9.190;2022-10-14T13:53:18;3.37;;;2.00;;
3769;SDS011;1900;48.890;9.190;2022-10-14T13:55:49;6.03;;;1.77;;
3769;SDS011;1900;48.890;9.190;2022-10-14T13:58:20;2.83;;;1.90;;
3769;SDS011;1900;48.890;9.190;2022-10-14T14:03:25;3.53;;;2.30;;
3769;SDS011;1900;48.890;9.190;2022-10-14T14:05:53;2.37;;;2.00;;
3769;SDS011;1900;48.890;9.190;2022-10-14T14:08:21;1.80;;;1.50;;
3769;SDS011;1900;48.890;9.190;2022-10-14T14:11:00;2.20;;;1.77;;
3769;SDS011;1900;48.890;9.190;2022-10-14T14:13:32;4.27;;;2.20;;
3769;SDS011;1900;48.890;9.190;2022-10-14T14:16:15;7.50;;;2.20;;
3769;SDS011;1900;48.890;9.190;2022-10-14T14:18:48;3.27;;;2.23;;
3769;SDS011;1900;48.890;9.190;2022-10-14T14:21:26;2.07;;;1.80;;
3769;SDS011;1900;48.890;9.190;2022-10-14T14:23:54;4.93;;;1.70;;
3769;SDS011;1900;48.890;9.190;2022-10-14T14:26:25;3.33;;;1.97;;
3769;SDS011;1900;48.890;9.190;2022-10-14T14:28:57;2.80;;;2.00;;
3769;SDS011;1900;48.890;9.190;2022-10-14T14:31:24;2.53;;;1.80;;
3769;SDS011;1900;48.890;9.190;2022-10-14T14:33:54;6.37;;;2.73;;
3769;SDS011;1900;48.890;9.190;2022-10-14T14:36:23;2.97;;;2.20;;
3769;SDS011;1900;48.890;9.190;2022-10-14T14:38:53;2.83;;;1.60;;
3769;SDS011;1900;48.890;9.190;2022-10-14T14:41:22;4.40;;;1.57;;
3769;SDS011;1900;48.890;9.190;2022-10-14T14:43:52;2.57;;;1.70;;
3769;SDS011;1900;48.890;9.190;2022-10-14T14:49:00;1.80;;;1.47;;
3769;SDS011;1900;48.890;9.190;2022-10-14T14:51:37;9.70;;;2.20;;
3769;SDS011;1900;48.890;9.190;2022-10-14T14:54:05;2.00;;;1.50;;
3769;SDS011;1900;48.890;9.190;2022-10-14T14:56:32;3.37;;;2.13;;
3769;SDS011;1900;48.890;9.190;2022-10-14T14:59:08;7.30;;;2.53;;
3769;SDS011;1900;48.890;9.190;2022-10-14T15:01:47;2.40;;;2.00;;
3769;SDS011;1900;48.890;9.190;2022-10-14T15:04:20;2.67;;;2.00;;
3769;SDS011;1900;48.890;9.190;2022-10-14T15:07:00;4.40;;;2.30;;
3769;SDS011;1900;48.890;9.190;2022-10-14T15:09:33;3.77;;;2.13;;
3769;SDS011;1900;48.890;9.190;2022-10-14T15:12:00;6.30;;;2.03;;
3769;SDS011;1900;48.890;9.190;2022-10-14T15:14:41;5.30;;;2.63;;
3769;SDS011;1900;48.890;9.190;2022-10-14T15:19:56;4.20;;;1.93;;
3769;SDS011;1900;48.890;9.190;2022-10-14T15:22:32;3.27;;;2.40;;
3769;SDS011;1900;48.890;9.190;2022-10-14T15:27:29;2.50;;;2.07;;
3769;SDS011;1900;48.890;9.190;2022-10-14T15:35:41;4.20;;;2.33;;
3769;SDS011;1900;48.890;9.190;2022-10-14T15:38:09;4.37;;;2.10;;
3769;SDS011;1900;48.890;9.190;2022-10-14T15:40:40;3.33;;;1.97;;
3769;SDS011;1900;48.890;9.190;2022-10-14T15:43:39;3.60;;;2.40;;
3769;SDS011;1900;48.890;9.190;2022-10-14T15:45:59;3.33;;;2.30;;
3769;SDS011;1900;48.890;9.190;2022-10-14T15:48:48;3.07;;;2.30;;
3769;SDS011;1900;48.890;9.190;2022-10-14T15:51:18;2.60;;;2.33;;
3769;SDS011;1900;48.890;9.190;2022-10-14T15:53:45;4.00;;;2.10;;
3769;SDS011;1900;48.890;9.190;2022-10-14T15:56:11;4.33;;;2.27;;
3769;SDS011;1900;48.890;9.190;2022-10-14T15:58:37;5.63;;;2.50;;
3769;SDS011;1900;48.890;9.190;2022-10-14T16:01:03;3.17;;;1.93;;
3769;SDS011;1900;48.890;9.190;2022-10-14T16:03:33;2.37;;;1.97;;
3769;SDS011;1900;48.890;9.190;2022-10-14T16:06:00;2.37;;;1.93;;
3769;SDS011;1900;48.890;9.190;2022-10-14T16:08:26;4.60;;;1.77;;
3769;SDS011;1900;48.890;9.190;2022-10-14T16:10:53;2.67;;;2.40;;
3769;SDS011;1900;48.890;9.190;2022-10-14T16:13:19;2.90;;;2.50;;
3769;SDS011;1900;48.890;9.190;2022-10-14T16:18:11;3.70;;;2.20;;
3769;SDS011;1900;48.890;9.190;2022-10-14T16:20:37;2.27;;;1.90;;
3769;SDS011;1900;48.890;9.190;2022-10-14T16:23:02;2.10;;;1.67;;
3769;SDS011;1900;48.890;9.190;2022-10-14T16:25:34;2.00;;;1.77;;
3769;SDS011;1900;48.890;9.190;2022-10-14T16:28:04;1.97;;;1.63;;
3769;SDS011;1900;48.890;9.190;2022-10-14T16:30:32;2.80;;;2.00;;
3769;SDS011;1900;48.890;9.190;2022-10-14T16:33:03;3.40;;;2.03;;
3769;SDS011;1900;48.890;9.190;2022-10-14T16:35:28;3.23;;;1.97;;
3769;SDS011;1900;48.890;9.190;2022-10-14T16:37:55;4.07;;;2.27;;
3769;SDS011;1900;48.890;9.190;2022-10-14T16:40:21;2.37;;;1.90;;
3769;SDS011;1900;48.890;9.190;2022-10-14T16:42:47;2.17;;;1.80;;
3769;SDS011;1900;48.890;9.190;2022-10-14T16:45:13;4.30;;;2.20;;
3769;SDS011;1900;48.890;9.190;2022-10-14T16:47:39;5.13;;;2.33;;
3769;SDS011;1900;48.890;9.190;2022-10-14T16:50:05;4.03;;;2.30;;
3769;SDS011;1900;48.890;9.190;2022-10-14T16:52:32;5.00;;;2.33;;
3769;SDS011;1900;48.890;9.190;2022-10-14T16:55:18;3.00;;;2.57;;
3769;SDS011;1900;48.890;9.190;2022-10-14T16:57:46;2.73;;;2.23;;
3769;SDS011;1900;48.890;9.190;2022-10-14T17:00:12;3.87;;;2.20;;
3769;SDS011;1900;48.890;9.190;2022-10-14T17:02:39;5.60;;;3.13;;
3769;SDS011;1900;48.890;9.190;2022-10-14T17:05:05;4.87;;;3.20;;
3769;SDS011;1900;48.890;9.190;2022-10-14T17:07:31;6.17;;;2.40;;
3769;SDS011;1900;48.890;9.190;2022-10-14T17:10:00;3.03;;;2.37;;
3769;SDS011;1900;48.890;9.190;2022-10-14T17:12:26;2.43;;;2.20;;
3769;SDS011;1900;48.890;9.190;2022-10-14T17:14:51;2.37;;;2.17;;
3769;SDS011;1900;48.890;9.190;2022-10-14T17:17:17;2.93;;;2.30;;
3769;SDS011;1900;48.890;9.190;2022-10-14T17:19:43;3.73;;;2.27;;
3769;SDS011;1900;48.890;9.190;2022-10-14T17:22:09;3.10;;;2.27;;
3769;SDS011;1900;48.890;9.190;2022-10-14T17:24:36;3.03;;;1.73;;
3769;SDS011;1900;48.890;9.190;2022-10-14T17:27:07;3.70;;;2.20;;
3769;SDS011;1900;48.890;9.190;2022-10-14T17:29:33;2.83;;;2.00;;
3769;SDS011;1900;48.890;9.190;2022-10-14T17:31:58;3.47;;;2.33;;
3769;SDS011;1900;48.890;9.190;2022-10-14T17:34:24;2.80;;;2.23;;
3769;SDS011;1900;48.890;9.190;2022-10-14T17:36:50;2.77;;;2.40;;
3769;SDS011;1900;48.890;9.190;2022-10-14T17:39:17;3.03;;;2.20;;
3769;SDS011;1900;48.890;9.190;2022-10-14T17:41:43;29.50;;;22.10;;
3769;SDS011;1900;48.890;9.190;2022-10-14T17:44:10;8.13;;;3.43;;
3769;SDS011;1900;48.890;9.190;2022-10-14T17:46:36;7.17;;;2.90;;
3769;SDS011;1900;48.890;9.190;2022-10-14T17:49:03;6.10;;;2.80;;
3769;SDS011;1900;48.890;9.190;2022-10-14T17:51:32;7.30;;;2.63;;
3769;SDS011;1900;48.890;9.190;2022-10-14T17:53:59;4.17;;;2.90;;